Time;durP1;ratioP1;P1;durP2;ratioP2;P2;SDS_P1;SDS_P2;PMS_P1;PMS_P2;Temp;Humidity;BMP_temperature;BMP_pressure;BME280_temperature;BME280_humidity;BME280_pressure;Samples;Min_cycle;Max_cycle;Signal;HPM_P1;HPM_P2
2023/04/02 00:00:32;;;;;;;0.63;0.30;;;;;;;;;;5010552;28;20046;-77
2023/04/02 00:03:00;;;;;;;0.68;0.40;;;;;;;;;;4962364;28;20049;-76
2023/04/02 00:05:33;;;;;;;1.67;0.60;;;;;;;;;;4969645;28;20140;-76
2023/04/02 00:08:02;;;;;;;1.08;0.43;;;;;;;;;;4998447;28;20401;-75
2023/04/02 00:10:30;;;;;;;1.00;0.40;;;;;;;;;;4980771;28;20057;-76
2023/04/02 00:13:09;;;;;;;1.60;0.55;;;;;;;;;;4997661;28;20068;-76
2023/04/02 00:15:37;;;;;;;0.45;0.30;;;;;;;;;;5021510;28;20056;-75
2023/04/02 00:18:04;;;;;;;0.95;0.30;;;;;;;;;;4962418;28;20052;-76
2023/04/02 00:20:35;;;;;;;0.30;0.30;;;;;;;;;;4962076;28;20421;-76
2023/04/02 00:23:02;;;;;;;0.93;0.40;;;;;;;;;;4962652;28;20681;-76
2023/04/02 00:25:30;;;;;;;1.98;0.60;;;;;;;;;;4985137;28;20049;-76
2023/04/02 00:27:57;;;;;;;1.50;0.38;;;;;;;;;;4970512;28;20529;-75
2023/04/02 00:30:23;;;;;;;1.20;0.40;;;;;;;;;;4977504;28;20052;-75
2023/04/02 00:32:50;;;;;;;0.40;0.30;;;;;;;;;;4977872;28;20053;-75
2023/04/02 00:35:26;;;;;;;0.85;0.47;;;;;;;;;;4983387;28;20053;-76
2023/04/02 00:37:53;;;;;;;1.55;0.25;;;;;;;;;;4982142;28;20045;-76
2023/04/02 00:40:25;;;;;;;0.95;0.30;;;;;;;;;;4980997;28;20053;-76
2023/04/02 00:42:53;;;;;;;0.63;0.20;;;;;;;;;;4981309;28;20045;-76
2023/04/02 00:45:31;;;;;;;0.65;0.28;;;;;;;;;;4978577;28;20072;-76
2023/04/02 00:48:00;;;;;;;0.90;0.20;;;;;;;;;;4963764;28;20053;-76
2023/04/02 00:50:32;;;;;;;0.95;0.30;;;;;;;;;;4962389;28;20053;-76
2023/04/02 00:52:58;;;;;;;0.82;0.40;;;;;;;;;;4961943;28;20061;-77
2023/04/02 00:55:37;;;;;;;0.82;0.40;;;;;;;;;;4967102;28;20489;-75
2023/04/02 00:58:32;;;;;;;2.13;0.30;;;;;;;;;;4981764;28;20398;-76
2023/04/02 01:00:59;;;;;;;2.05;0.50;;;;;;;;;;4999475;28;20045;-76
2023/04/02 01:03:29;;;;;;;0.82;0.40;;;;;;;;;;4981226;28;20137;-77
2023/04/02 01:06:15;;;;;;;2.25;0.35;;;;;;;;;;5029110;28;20084;-77
2023/04/02 01:08:49;;;;;;;0.50;0.40;;;;;;;;;;4981571;28;20485;-77
2023/04/02 01:11:30;;;;;;;0.30;0.30;;;;;;;;;;4997449;28;20054;-77
2023/04/02 01:14:19;;;;;;;1.27;0.50;;;;;;;;;;5028331;28;20425;-77
2023/04/02 01:17:17;;;;;;;0.95;0.35;;;;;;;;;;4999839;28;20133;-77
2023/04/02 01:20:21;;;;;;;0.50;0.40;;;;;;;;;;4998030;28;20045;-76
2023/04/02 01:23:06;;;;;;;0.32;0.20;;;;;;;;;;5033336;28;20057;-77
2023/04/02 01:25:47;;;;;;;0.85;0.45;;;;;;;;;;4992336;28;20060;-77
2023/04/02 01:28:46;;;;;;;0.50;0.30;;;;;;;;;;4985320;28;20053;-76
2023/04/02 01:31:12;;;;;;;1.30;0.30;;;;;;;;;;4993126;28;20056;-78
2023/04/02 01:33:39;;;;;;;1.05;0.40;;;;;;;;;;4995305;28;20054;-76
2023/04/02 01:36:20;;;;;;;0.70;0.40;;;;;;;;;;4973348;28;20052;-75
2023/04/02 01:38:57;;;;;;;0.38;0.30;;;;;;;;;;4995269;28;20054;-76
2023/04/02 01:41:39;;;;;;;0.57;0.32;;;;;;;;;;4996398;28;20056;-76
2023/04/02 01:44:11;;;;;;;0.90;0.47;;;;;;;;;;4967957;28;20057;-75
2023/04/02 01:46:40;;;;;;;0.38;0.30;;;;;;;;;;4978073;28;20049;-77
2023/04/02 01:49:13;;;;;;;0.30;0.20;;;;;;;;;;5004894;28;20064;-75
2023/04/02 01:51:45;;;;;;;0.93;0.30;;;;;;;;;;5007677;28;20034;-76
2023/04/02 01:54:13;;;;;;;0.40;0.40;;;;;;;;;;5004360;28;20060;-76
2023/04/02 01:56:39;;;;;;;0.35;0.20;;;;;;;;;;5003718;28;20025;-77
2023/04/02 01:59:06;;;;;;;0.40;0.40;;;;;;;;;;4995630;28;20053;-76
2023/04/02 02:01:51;;;;;;;0.30;0.30;;;;;;;;;;5003911;28;20052;-76
2023/04/02 02:04:18;;;;;;;0.43;0.30;;;;;;;;;;4988196;28;20109;-76
2023/04/02 02:06:45;;;;;;;0.45;0.32;;;;;;;;;;4987857;28;20044;-75
2023/04/02 02:09:27;;;;;;;0.30;0.30;;;;;;;;;;4987020;28;20033;-76
2023/04/02 02:11:55;;;;;;;0.77;0.32;;;;;;;;;;5002821;28;20103;-77
2023/04/02 02:14:23;;;;;;;0.95;0.30;;;;;;;;;;5001198;28;20053;-76
2023/04/02 02:16:52;;;;;;;0.35;0.30;;;;;;;;;;5003417;28;20032;-76
2023/04/02 02:19:39;;;;;;;0.50;0.25;;;;;;;;;;5006072;28;20072;-76
2023/04/02 02:22:11;;;;;;;0.77;0.40;;;;;;;;;;5004128;28;20038;-76
2023/04/02 02:24:38;;;;;;;0.20;0.20;;;;;;;;;;5003229;28;20057;-76
2023/04/02 02:27:23;;;;;;;0.28;0.28;;;;;;;;;;5012824;28;20053;-77
2023/04/02 02:29:50;;;;;;;0.65;0.45;;;;;;;;;;5039217;28;20050;-76
2023/04/02 02:32:19;;;;;;;0.10;0.10;;;;;;;;;;5004187;28;20054;-77
2023/04/02 02:34:48;;;;;;;0.50;0.40;;;;;;;;;;4983503;28;20057;-79
2023/04/02 02:37:18;;;;;;;0.28;0.22;;;;;;;;;;4984103;28;20072;-77
2023/04/02 02:39:47;;;;;;;0.85;0.57;;;;;;;;;;4983992;28;20076;-77
2023/04/02 02:42:17;;;;;;;0.45;0.32;;;;;;;;;;4983781;28;20060;-76
2023/04/02 02:44:46;;;;;;;0.80;0.40;;;;;;;;;;4984074;28;20056;-76
2023/04/02 02:47:15;;;;;;;3.20;0.20;;;;;;;;;;4968901;28;20057;-76
2023/04/02 02:49:48;;;;;;;0.20;0.20;;;;;;;;;;4964677;28;20049;-77
2023/04/02 02:52:16;;;;;;;;;;;;;;;;;;4965517;28;20569;-76
2023/04/02 02:54:46;;;;;;;0.28;0.20;;;;;;;;;;4996158;28;19929;-78
2023/04/02 02:57:24;;;;;;;0.90;0.20;;;;;;;;;;4964802;28;20057;-77
2023/04/02 02:59:51;;;;;;;2.03;0.57;;;;;;;;;;4965759;28;20054;-77
2023/04/02 03:02:18;;;;;;;0.73;0.30;;;;;;;;;;5012135;28;20054;-77
2023/04/02 03:04:47;;;;;;;1.02;0.30;;;;;;;;;;5011989;28;20064;-76
2023/04/02 03:07:15;;;;;;;0.50;0.20;;;;;;;;;;4995918;28;20050;-77
2023/04/02 03:10:13;;;;;;;1.85;0.30;;;;;;;;;;4995980;28;20050;-76
2023/04/02 03:12:44;;;;;;;0.85;0.22;;;;;;;;;;4982778;28;20042;-76
2023/04/02 03:15:11;;;;;;;0.70;0.28;;;;;;;;;;4980517;28;20446;-76
2023/04/02 03:17:58;;;;;;;1.20;0.20;;;;;;;;;;5011691;28;20049;-75
2023/04/02 03:20:42;;;;;;;0.95;0.40;;;;;;;;;;5012374;28;20573;-75
2023/04/02 03:23:29;;;;;;;1.10;0.20;;;;;;;;;;4982510;28;20057;-76
2023/04/02 03:26:01;;;;;;;0.75;0.20;;;;;;;;;;4984650;28;20536;-75
2023/04/02 03:28:33;;;;;;;0.45;0.20;;;;;;;;;;4998417;28;20417;-76
2023/04/02 03:31:25;;;;;;;1.45;0.68;;;;;;;;;;4982661;28;20063;-77
2023/04/02 03:33:55;;;;;;;0.52;0.20;;;;;;;;;;4975114;28;20494;-77
2023/04/02 03:36:24;;;;;;;1.63;0.40;;;;;;;;;;4979259;28;20080;-77
2023/04/02 03:39:09;;;;;;;0.20;0.20;;;;;;;;;;4978895;28;20464;-77
2023/04/02 03:41:41;;;;;;;0.38;0.20;;;;;;;;;;4979446;28;20045;-76
2023/04/02 03:44:33;;;;;;;3.45;0.30;;;;;;;;;;4978835;28;20049;-76
2023/04/02 03:47:07;;;;;;;1.85;0.40;;;;;;;;;;4997219;28;20060;-76
2023/04/02 03:49:52;;;;;;;1.45;0.40;;;;;;;;;;4984481;28;20509;-78
2023/04/02 03:52:24;;;;;;;0.10;0.10;;;;;;;;;;4986122;28;20053;-77
2023/04/02 03:54:51;;;;;;;0.30;0.30;;;;;;;;;;4982600;28;20057;-77
2023/04/02 03:57:46;;;;;;;0.65;0.40;;;;;;;;;;4978313;28;20049;-78
2023/04/02 04:00:16;;;;;;;;;;;;;;;;;;4969901;28;20049;-77
2023/04/02 04:02:46;;;;;;;0.32;0.30;;;;;;;;;;5011021;28;20374;-77
2023/04/02 04:05:34;;;;;;;0.38;0.20;;;;;;;;;;4963063;28;20073;-77
2023/04/02 04:08:13;;;;;;;1.10;0.20;;;;;;;;;;4978818;28;20053;-77
2023/04/02 04:10:39;;;;;;;0.20;0.20;;;;;;;;;;4979627;28;20061;-77
2023/04/02 04:13:14;;;;;;;0.40;0.30;;;;;;;;;;4982089;28;20053;-77
2023/04/02 04:15:48;;;;;;;0.20;0.20;;;;;;;;;;4981954;28;20049;-78
2023/04/02 04:18:17;;;;;;;;;;;;;;;;;;4982357;28;20048;-77
2023/04/02 04:20:55;;;;;;;0.30;0.20;;;;;;;;;;5025688;28;19948;-77
2023/04/02 04:23:35;;;;;;;0.98;0.40;;;;;;;;;;4978134;28;20521;-76
2023/04/02 04:26:08;;;;;;;0.47;0.40;;;;;;;;;;4962324;28;20065;-76
2023/04/02 04:28:38;;;;;;;;;;;;;;;;;;4978875;28;20053;-77
2023/04/02 04:31:16;;;;;;;0.38;0.30;;;;;;;;;;4993678;28;19925;-76
2023/04/02 04:33:45;;;;;;;0.32;0.32;;;;;;;;;;4973722;28;20080;-77
2023/04/02 04:36:27;;;;;;;0.73;0.40;;;;;;;;;;4969396;28;20080;-79
2023/04/02 04:38:58;;;;;;;0.40;0.40;;;;;;;;;;4964204;28;20465;-78
2023/04/02 04:41:31;;;;;;;0.57;0.40;;;;;;;;;;4977877;28;20057;-77
2023/04/02 04:44:20;;;;;;;0.60;0.30;;;;;;;;;;4962419;28;20072;-78
2023/04/02 04:47:00;;;;;;;1.13;0.40;;;;;;;;;;4994396;28;20042;-78
2023/04/02 04:49:32;;;;;;;0.50;0.40;;;;;;;;;;4963284;28;20056;-78
2023/04/02 04:52:20;;;;;;;1.70;0.23;;;;;;;;;;4978992;28;20061;-78
2023/04/02 04:54:47;;;;;;;0.40;0.20;;;;;;;;;;4990551;28;20056;-77
2023/04/02 04:57:26;;;;;;;0.47;0.30;;;;;;;;;;4969666;28;20041;-78
2023/04/02 05:00:05;;;;;;;1.55;0.30;;;;;;;;;;5019377;28;20630;-77
2023/04/02 05:02:44;;;;;;;0.38;0.38;;;;;;;;;;5011963;28;20059;-71
2023/04/02 05:05:39;;;;;;;0.93;0.40;;;;;;;;;;4977125;28;20095;-74
2023/04/02 05:08:13;;;;;;;1.17;0.30;;;;;;;;;;4978560;28;20506;-76
2023/04/02 05:10:51;;;;;;;0.93;0.30;;;;;;;;;;4965020;28;20060;-76
2023/04/02 05:13:22;;;;;;;0.57;0.43;;;;;;;;;;4996479;28;20049;-75
2023/04/02 05:16:20;;;;;;;0.20;0.15;;;;;;;;;;5028949;28;20509;-76
2023/04/02 05:19:06;;;;;;;0.38;0.20;;;;;;;;;;5029245;28;20059;-76
2023/04/02 05:21:43;;;;;;;0.45;0.40;;;;;;;;;;5008350;28;20049;-76
2023/04/02 05:24:29;;;;;;;0.20;0.20;;;;;;;;;;5009349;28;20135;-74
2023/04/02 05:26:59;;;;;;;2.20;0.20;;;;;;;;;;5024345;28;20057;-76
2023/04/02 05:29:28;;;;;;;0.88;0.22;;;;;;;;;;4996218;28;20050;-75
2023/04/02 05:32:02;;;;;;;0.30;0.25;;;;;;;;;;4993660;28;20053;-77
2023/04/02 05:34:32;;;;;;;0.50;0.22;;;;;;;;;;5027152;28;20059;-75
2023/04/02 05:37:00;;;;;;;0.73;0.30;;;;;;;;;;5012656;28;20045;-75
2023/04/02 05:39:28;;;;;;;0.40;0.30;;;;;;;;;;5029049;28;20057;-74
2023/04/02 05:42:07;;;;;;;0.80;0.40;;;;;;;;;;4996361;28;20061;-75
2023/04/02 05:44:36;;;;;;;0.10;0.10;;;;;;;;;;4996553;28;20053;-74
2023/04/02 05:47:24;;;;;;;0.40;0.30;;;;;;;;;;4996733;28;20049;-74
2023/04/02 05:50:04;;;;;;;1.15;0.35;;;;;;;;;;4996296;28;20119;-75
2023/04/02 05:52:33;;;;;;;0.50;0.30;;;;;;;;;;5027532;28;20057;-76
2023/04/02 05:55:12;;;;;;;0.43;0.28;;;;;;;;;;4996156;28;20045;-74
2023/04/02 05:57:50;;;;;;;1.33;0.50;;;;;;;;;;5028428;28;20046;-76
2023/04/02 06:00:38;;;;;;;0.75;0.20;;;;;;;;;;4995264;28;20116;-75
2023/04/02 06:03:48;;;;;;;2.05;0.30;;;;;;;;;;5008897;28;20056;-76
2023/04/02 06:06:42;;;;;;;0.65;0.35;;;;;;;;;;4975374;28;20072;-77
2023/04/02 06:09:22;;;;;;;0.45;0.20;;;;;;;;;;4980887;28;20505;-78
2023/04/02 06:12:18;;;;;;;1.33;0.25;;;;;;;;;;5001026;28;20060;-77
2023/04/02 06:14:45;;;;;;;1.10;0.40;;;;;;;;;;4986787;28;20056;-77
2023/04/02 06:17:15;;;;;;;0.60;0.30;;;;;;;;;;4984445;28;20045;-76
2023/04/02 06:19:41;;;;;;;0.45;0.30;;;;;;;;;;4985171;28;20049;-80
2023/04/02 06:22:23;;;;;;;0.68;0.30;;;;;;;;;;5018557;28;20060;-79
2023/04/02 06:24:57;;;;;;;1.15;0.40;;;;;;;;;;5009939;28;20410;-81
2023/04/02 06:27:24;;;;;;;0.40;0.30;;;;;;;;;;4965167;28;20494;-80
2023/04/02 06:29:54;;;;;;;1.67;0.30;;;;;;;;;;4979762;28;20054;-77
2023/04/02 06:32:23;;;;;;;1.27;0.45;;;;;;;;;;4995693;28;20050;-77
2023/04/02 06:34:49;;;;;;;0.70;0.50;;;;;;;;;;4982377;28;20251;-78
2023/04/02 06:37:21;;;;;;;0.95;0.52;;;;;;;;;;4998990;28;20441;-77
2023/04/02 06:39:48;;;;;;;0.95;0.47;;;;;;;;;;4998538;28;20049;-77
2023/04/02 06:42:20;;;;;;;0.80;0.50;;;;;;;;;;4982101;28;20406;-77
2023/04/02 06:44:47;;;;;;;0.70;0.50;;;;;;;;;;4982468;28;20045;-77
2023/04/02 06:47:45;;;;;;;1.85;0.70;;;;;;;;;;4978272;28;20050;-77
2023/04/02 06:50:34;;;;;;;0.60;0.60;;;;;;;;;;4981677;28;20049;-77
2023/04/02 06:53:08;;;;;;;0.63;0.40;;;;;;;;;;4996941;28;20077;-77
2023/04/02 06:55:58;;;;;;;1.38;0.80;;;;;;;;;;4979869;28;20046;-78
2023/04/02 06:58:25;;;;;;;1.65;0.60;;;;;;;;;;4983640;28;20683;-77
2023/04/02 07:00:52;;;;;;;1.13;0.60;;;;;;;;;;4971038;28;20049;-77
2023/04/02 07:03:23;;;;;;;0.47;0.47;;;;;;;;;;4977976;28;20060;-77
2023/04/02 07:05:50;;;;;;;1.20;0.65;;;;;;;;;;5014148;28;20079;-76
2023/04/02 07:08:17;;;;;;;1.40;0.63;;;;;;;;;;4997203;28;20120;-77
2023/04/02 07:10:44;;;;;;;2.08;0.80;;;;;;;;;;4996865;28;20398;-77
2023/04/02 07:13:20;;;;;;;0.60;0.50;;;;;;;;;;5013656;28;20052;-77
2023/04/02 07:15:52;;;;;;;1.20;0.63;;;;;;;;;;5011333;28;20049;-76
2023/04/02 07:18:29;;;;;;;0.73;0.40;;;;;;;;;;4977626;28;20050;-77
2023/04/02 07:20:56;;;;;;;2.35;0.93;;;;;;;;;;4977102;28;20495;-76
2023/04/02 07:23:23;;;;;;;0.80;0.80;;;;;;;;;;4961874;28;20081;-77
2023/04/02 07:25:53;;;;;;;0.82;0.82;;;;;;;;;;4961912;28;20049;-76
2023/04/02 07:28:20;;;;;;;1.40;0.55;;;;;;;;;;4961631;28;20054;-77
2023/04/02 07:30:49;;;;;;;0.70;0.52;;;;;;;;;;4962029;28;20053;-76
2023/04/02 07:33:18;;;;;;;0.70;0.60;;;;;;;;;;4960940;28;20062;-75
2023/04/02 07:35:45;;;;;;;1.63;0.65;;;;;;;;;;4961120;28;20089;-74
2023/04/02 07:38:12;;;;;;;1.63;1.25;;;;;;;;;;4961347;28;20498;-75
2023/04/02 07:40:38;;;;;;;0.57;0.50;;;;;;;;;;4977060;28;20057;-75
2023/04/02 07:43:05;;;;;;;1.15;0.50;;;;;;;;;;4977341;28;20045;-76
2023/04/02 07:45:32;;;;;;;1.73;1.02;;;;;;;;;;4961132;28;20573;-75
2023/04/02 07:48:07;;;;;;;1.48;0.93;;;;;;;;;;4961130;28;20552;-77
2023/04/02 07:50:34;;;;;;;1.00;0.70;;;;;;;;;;4960933;28;20126;-77
2023/04/02 07:53:01;;;;;;;0.50;0.50;;;;;;;;;;4968732;28;20056;-76
2023/04/02 07:55:27;;;;;;;0.90;0.70;;;;;;;;;;5012824;28;20076;-77
2023/04/02 07:57:56;;;;;;;1.52;0.60;;;;;;;;;;4996846;28;20099;-76
2023/04/02 08:00:24;;;;;;;1.58;0.60;;;;;;;;;;4991901;28;20050;-77
2023/04/02 08:02:50;;;;;;;0.68;0.55;;;;;;;;;;4996245;28;20084;-75
2023/04/02 08:05:18;;;;;;;2.20;1.05;;;;;;;;;;4990894;28;20050;-77
2023/04/02 08:07:55;;;;;;;0.90;0.60;;;;;;;;;;4986592;28;20519;-76
2023/04/02 08:10:23;;;;;;;1.95;0.90;;;;;;;;;;5012914;28;20060;-77
2023/04/02 08:12:50;;;;;;;0.70;0.60;;;;;;;;;;5008767;28;20045;-76
2023/04/02 08:15:17;;;;;;;0.90;0.55;;;;;;;;;;5012595;28;20059;-76
2023/04/02 08:17:44;;;;;;;1.38;1.13;;;;;;;;;;5002665;28;20478;-83
2023/04/02 08:20:19;;;;;;;1.58;0.60;;;;;;;;;;5010179;28;20058;-77
2023/04/02 08:22:47;;;;;;;1.08;0.50;;;;;;;;;;5021739;28;20045;-78
2023/04/02 08:25:15;;;;;;;0.43;0.43;;;;;;;;;;4980211;28;20071;-77
2023/04/02 08:27:41;;;;;;;2.50;0.52;;;;;;;;;;4981073;28;20053;-77
2023/04/02 08:30:10;;;;;;;0.57;0.50;;;;;;;;;;4981253;28;20065;-77
2023/04/02 08:32:39;;;;;;;1.70;1.15;;;;;;;;;;4981768;28;20057;-77
2023/04/02 08:35:09;;;;;;;0.68;0.50;;;;;;;;;;4987772;28;20061;-76
2023/04/02 08:37:36;;;;;;;0.77;0.40;;;;;;;;;;4994794;28;20096;-77
2023/04/02 08:40:06;;;;;;;2.83;0.63;;;;;;;;;;5020600;28;20408;-78
2023/04/02 08:42:38;;;;;;;0.82;0.55;;;;;;;;;;4980179;28;20079;-77
2023/04/02 08:45:08;;;;;;;2.00;0.70;;;;;;;;;;4980388;28;20493;-77
2023/04/02 08:47:52;;;;;;;1.10;0.65;;;;;;;;;;5026549;28;20056;-76
2023/04/02 08:50:36;;;;;;;1.60;0.68;;;;;;;;;;5002221;28;20523;-77
2023/04/02 08:53:24;;;;;;;1.75;0.70;;;;;;;;;;4969384;28;20433;-77
2023/04/02 08:55:58;;;;;;;1.85;0.50;;;;;;;;;;5002909;28;20050;-75
2023/04/02 08:58:41;;;;;;;1.55;0.70;;;;;;;;;;4988532;28;20049;-76
2023/04/02 09:01:30;;;;;;;;;;;;;;;;;;4995935;28;20049;-75
2023/04/02 09:03:57;;;;;;;4.57;0.70;;;;;;;;;;5011648;28;19975;-76
2023/04/02 09:06:26;;;;;;;2.53;0.50;;;;;;;;;;4979952;28;20060;-76
2023/04/02 09:08:53;;;;;;;0.75;0.60;;;;;;;;;;4995990;28;20045;-77
2023/04/02 09:11:20;;;;;;;1.60;0.70;;;;;;;;;;4979680;28;20045;-77
2023/04/02 09:13:55;;;;;;;2.17;1.10;;;;;;;;;;5011777;28;20081;-76
2023/04/02 09:16:42;;;;;;;2.30;1.38;;;;;;;;;;4979433;28;20055;-76
2023/04/02 09:19:24;;;;;;;1.73;0.73;;;;;;;;;;4983552;28;20049;-75
2023/04/02 09:21:55;;;;;;;1.23;0.70;;;;;;;;;;5021950;28;20049;-77
2023/04/02 09:24:22;;;;;;;0.77;0.70;;;;;;;;;;4986727;28;20064;-77
2023/04/02 09:26:49;;;;;;;0.70;0.60;;;;;;;;;;5011668;28;20057;-77
2023/04/02 09:29:45;;;;;;;1.40;0.70;;;;;;;;;;4995884;28;20057;-76
2023/04/02 09:32:26;;;;;;;1.45;0.80;;;;;;;;;;5018766;28;20053;-76
2023/04/02 09:35:33;;;;;;;2.30;1.02;;;;;;;;;;5001874;28;20080;-76
2023/04/02 09:38:21;;;;;;;2.20;1.15;;;;;;;;;;4937605;28;20048;-76
2023/04/02 09:41:17;;;;;;;2.78;0.80;;;;;;;;;;4922395;29;20048;-77
2023/04/02 09:43:44;;;;;;;1.13;0.50;;;;;;;;;;4982815;28;20057;-77
2023/04/02 09:46:21;;;;;;;0.80;0.57;;;;;;;;;;5022646;28;20080;-76
2023/04/02 09:48:52;;;;;;;1.50;0.47;;;;;;;;;;5024716;28;20149;-77
2023/04/02 09:51:25;;;;;;;1.15;0.80;;;;;;;;;;5008559;28;20050;-75
2023/04/02 09:54:01;;;;;;;0.60;0.47;;;;;;;;;;5007290;28;20053;-77
2023/04/02 09:56:32;;;;;;;1.88;0.50;;;;;;;;;;5035808;28;20056;-74
2023/04/02 09:59:20;;;;;;;1.95;0.63;;;;;;;;;;5037099;28;20053;-76
2023/04/02 10:01:53;;;;;;;1.00;0.63;;;;;;;;;;5005147;28;20088;-77
2023/04/02 10:04:42;;;;;;;;;;;;;;;;;;5032378;28;20140;-76
2023/04/02 10:07:28;;;;;;;1.20;0.63;;;;;;;;;;5020500;28;19971;-77
2023/04/02 10:10:03;;;;;;;0.75;0.45;;;;;;;;;;5020471;28;20516;-77
2023/04/02 10:12:32;;;;;;;0.98;0.60;;;;;;;;;;4986979;28;20109;-77
2023/04/02 10:15:00;;;;;;;0.50;0.40;;;;;;;;;;4986211;28;20045;-76
2023/04/02 10:17:29;;;;;;;0.85;0.50;;;;;;;;;;4988969;28;20112;-76
2023/04/02 10:20:10;;;;;;;0.73;0.40;;;;;;;;;;5006401;28;20050;-77
2023/04/02 10:22:37;;;;;;;0.47;0.40;;;;;;;;;;5008457;28;20107;-77
2023/04/02 10:25:12;;;;;;;0.40;0.40;;;;;;;;;;4981638;28;20422;-77
2023/04/02 10:27:51;;;;;;;0.50;0.50;;;;;;;;;;4982691;28;20080;-77
2023/04/02 10:30:28;;;;;;;1.60;0.63;;;;;;;;;;4998248;28;20056;-76
2023/04/02 10:33:10;;;;;;;1.35;0.60;;;;;;;;;;4982752;28;20076;-77
2023/04/02 10:35:59;;;;;;;0.47;0.47;;;;;;;;;;5019905;28;20517;-75
2023/04/02 10:38:38;;;;;;;0.65;0.60;;;;;;;;;;4994390;28;20147;-83
2023/04/02 10:41:26;;;;;;;0.80;0.70;;;;;;;;;;4993071;28;20060;-77
2023/04/02 10:43:58;;;;;;;1.08;0.57;;;;;;;;;;5029296;28;20068;-76
2023/04/02 10:47:01;;;;;;;0.50;0.50;;;;;;;;;;5008773;28;20049;-77
2023/04/02 10:49:37;;;;;;;0.63;0.60;;;;;;;;;;5033247;28;20054;-79
2023/04/02 10:52:16;;;;;;;1.40;0.70;;;;;;;;;;5032345;28;20509;-77
2023/04/02 10:54:50;;;;;;;0.60;0.32;;;;;;;;;;5003948;28;20053;-77
2023/04/02 10:57:40;;;;;;;0.73;0.50;;;;;;;;;;4995495;28;20045;-76
2023/04/02 11:00:11;;;;;;;0.90;0.55;;;;;;;;;;4982127;28;20128;-77
2023/04/02 11:02:56;;;;;;;0.75;0.50;;;;;;;;;;5014274;28;20049;-77
2023/04/02 11:05:46;;;;;;;1.40;0.80;;;;;;;;;;5027325;28;20053;-76
2023/04/02 11:08:42;;;;;;;0.70;0.50;;;;;;;;;;4998730;28;20049;-77
2023/04/02 11:11:29;;;;;;;0.60;0.43;;;;;;;;;;4997906;28;20046;-77
2023/04/02 11:14:04;;;;;;;1.02;0.82;;;;;;;;;;5015561;28;20053;-77
2023/04/02 11:16:31;;;;;;;0.40;0.40;;;;;;;;;;5000173;28;20053;-76
2023/04/02 11:19:07;;;;;;;0.38;0.38;;;;;;;;;;5004604;28;20045;-78
2023/04/02 11:21:43;;;;;;;0.60;0.40;;;;;;;;;;5022286;28;20054;-77
2023/04/02 11:24:32;;;;;;;0.57;0.57;;;;;;;;;;5017606;28;20517;-76
2023/04/02 11:27:04;;;;;;;0.55;0.35;;;;;;;;;;5001596;28;20072;-76
2023/04/02 11:29:33;;;;;;;0.57;0.52;;;;;;;;;;5000713;28;20132;-75
2023/04/02 11:32:26;;;;;;;0.45;0.45;;;;;;;;;;4985687;28;20050;-76
2023/04/02 11:34:53;;;;;;;0.85;0.50;;;;;;;;;;5015608;28;20045;-75
2023/04/02 11:37:39;;;;;;;0.50;0.50;;;;;;;;;;5030063;28;20053;-76
2023/04/02 11:40:09;;;;;;;0.77;0.40;;;;;;;;;;5000589;28;20578;-75
2023/04/02 11:42:39;;;;;;;1.50;0.60;;;;;;;;;;5014806;28;20055;-76
2023/04/02 11:48:00;;;;;;;0.40;0.40;;;;;;;;;;5031896;28;20045;-76
2023/04/02 11:50:31;;;;;;;0.40;0.40;;;;;;;;;;5013176;28;20076;-76
2023/04/02 11:53:22;;;;;;;1.05;0.60;;;;;;;;;;4996958;28;20056;-76
2023/04/02 11:55:52;;;;;;;0.63;0.45;;;;;;;;;;5013194;28;20059;-76
2023/04/02 11:58:41;;;;;;;0.55;0.40;;;;;;;;;;5012899;28;20588;-76
2023/04/02 12:01:17;;;;;;;0.50;0.30;;;;;;;;;;4994599;28;20045;-75
2023/04/02 12:03:50;;;;;;;1.35;0.40;;;;;;;;;;5008525;28;20053;-74
2023/04/02 12:06:50;;;;;;;0.60;0.40;;;;;;;;;;5012292;28;20421;-81
2023/04/02 12:09:24;;;;;;;0.50;0.40;;;;;;;;;;4983327;28;20052;-76
2023/04/02 12:11:56;;;;;;;0.60;0.30;;;;;;;;;;4996289;28;20060;-76
2023/04/02 12:14:35;;;;;;;0.60;0.60;;;;;;;;;;4997375;28;20057;-77
2023/04/02 12:17:03;;;;;;;0.40;0.30;;;;;;;;;;5024605;28;20061;-77
2023/04/02 12:19:33;;;;;;;0.90;0.60;;;;;;;;;;4984031;28;20529;-77
2023/04/02 12:22:00;;;;;;;0.80;0.63;;;;;;;;;;4996145;28;20049;-77
2023/04/02 12:24:30;;;;;;;0.50;0.40;;;;;;;;;;4988599;28;20054;-76
2023/04/02 12:27:15;;;;;;;0.82;0.50;;;;;;;;;;4981101;28;20054;-77
2023/04/02 12:29:42;;;;;;;1.98;1.10;;;;;;;;;;4978175;28;20041;-77
2023/04/02 12:32:27;;;;;;;0.80;0.70;;;;;;;;;;4980846;28;20049;-77
2023/04/02 12:34:57;;;;;;;0.60;0.60;;;;;;;;;;4980307;28;20048;-77
2023/04/02 12:37:26;;;;;;;0.80;0.80;;;;;;;;;;4976127;28;20133;-77
2023/04/02 12:39:55;;;;;;;0.70;0.70;;;;;;;;;;5008631;28;20424;-77
2023/04/02 12:42:27;;;;;;;3.25;1.02;;;;;;;;;;4979879;28;20564;-76
2023/04/02 12:44:54;;;;;;;0.50;0.50;;;;;;;;;;4980440;28;20041;-76
2023/04/02 12:47:21;;;;;;;1.75;0.77;;;;;;;;;;5002457;28;20049;-74
2023/04/02 12:49:48;;;;;;;1.75;1.00;;;;;;;;;;4982667;28;20046;-75
2023/04/02 12:52:16;;;;;;;1.30;1.20;;;;;;;;;;4998829;28;20053;-76
2023/04/02 12:54:45;;;;;;;1.20;0.73;;;;;;;;;;5017141;28;20061;-76
2023/04/02 12:57:24;;;;;;;1.30;0.60;;;;;;;;;;5001221;28;20049;-76
2023/04/02 12:59:52;;;;;;;3.35;0.70;;;;;;;;;;5011298;28;20060;-76
2023/04/02 13:02:26;;;;;;;1.27;0.90;;;;;;;;;;4979955;28;20049;-75
2023/04/02 13:04:55;;;;;;;1.00;0.90;;;;;;;;;;4980833;28;20085;-76
2023/04/02 13:07:24;;;;;;;1.05;0.80;;;;;;;;;;4982309;28;20428;-76
2023/04/02 13:09:55;;;;;;;1.67;0.68;;;;;;;;;;4987664;28;20081;-76
2023/04/02 13:12:38;;;;;;;1.27;0.70;;;;;;;;;;4996146;28;20429;-76
2023/04/02 13:15:17;;;;;;;;;;;;;;;;;;4992749;28;20050;-75
2023/04/02 13:17:49;;;;;;;0.80;0.80;;;;;;;;;;5011424;28;19921;-76
2023/04/02 13:20:39;;;;;;;2.63;1.27;;;;;;;;;;4984200;28;20088;-74
2023/04/02 13:23:44;;;;;;;1.27;0.90;;;;;;;;;;4975330;28;20429;-74
2023/04/02 13:26:26;;;;;;;0.65;0.65;;;;;;;;;;4933763;29;20060;-74
2023/04/02 13:29:08;;;;;;;0.77;0.77;;;;;;;;;;4903308;29;20110;-75
2023/04/02 13:31:35;;;;;;;1.17;0.90;;;;;;;;;;4956521;28;20046;-76
2023/04/02 13:34:02;;;;;;;0.70;0.70;;;;;;;;;;5013100;28;20108;-75
2023/04/02 13:36:29;;;;;;;2.30;2.10;;;;;;;;;;5024013;28;20050;-75
2023/04/02 13:38:56;;;;;;;0.90;0.90;;;;;;;;;;4981368;28;20054;-75
2023/04/02 13:41:26;;;;;;;1.45;1.10;;;;;;;;;;4981073;28;20071;-77
2023/04/02 13:43:53;;;;;;;0.82;0.82;;;;;;;;;;4981501;28;20092;-76
2023/04/02 13:46:22;;;;;;;1.10;1.00;;;;;;;;;;4980921;28;20050;-74
2023/04/02 13:48:50;;;;;;;1.70;1.20;;;;;;;;;;4981346;28;20471;-77
2023/04/02 13:51:17;;;;;;;1.83;1.00;;;;;;;;;;4980735;28;20065;-76
2023/04/02 13:53:50;;;;;;;1.48;1.38;;;;;;;;;;4980828;28;20084;-76
2023/04/02 13:56:18;;;;;;;2.25;1.33;;;;;;;;;;4980787;28;20057;-77
2023/04/02 13:58:45;;;;;;;1.80;1.10;;;;;;;;;;4996706;28;20057;-77
2023/04/02 14:01:13;;;;;;;1.33;1.23;;;;;;;;;;4996538;28;20641;-77
2023/04/02 14:03:40;;;;;;;1.60;1.50;;;;;;;;;;5003666;28;20084;-75
2023/04/02 14:06:37;;;;;;;1.00;1.00;;;;;;;;;;5016208;28;20076;-74
2023/04/02 14:09:24;;;;;;;0.90;0.90;;;;;;;;;;4985978;28;20057;-77
2023/04/02 14:12:25;;;;;;;1.27;1.00;;;;;;;;;;4982177;28;20088;-75
2023/04/02 14:15:17;;;;;;;1.17;1.08;;;;;;;;;;5012675;28;20056;-77
2023/04/02 14:17:52;;;;;;;1.00;1.00;;;;;;;;;;5021423;28;20057;-76
2023/04/02 14:20:34;;;;;;;1.10;1.00;;;;;;;;;;5032046;28;20045;-75
2023/04/02 14:23:19;;;;;;;1.20;1.10;;;;;;;;;;4984693;28;20049;-76
2023/04/02 14:26:11;;;;;;;2.10;1.90;;;;;;;;;;5032108;28;20501;-76
2023/04/02 14:28:40;;;;;;;3.95;2.15;;;;;;;;;;4998648;28;20053;-76
2023/04/02 14:31:22;;;;;;;1.20;1.10;;;;;;;;;;5024504;28;20045;-75
2023/04/02 14:33:52;;;;;;;1.35;1.25;;;;;;;;;;4996220;28;20077;-78
2023/04/02 14:36:34;;;;;;;2.78;1.30;;;;;;;;;;4996181;28;20053;-79
2023/04/02 14:39:09;;;;;;;1.77;1.00;;;;;;;;;;4980213;28;20429;-76
2023/04/02 14:41:59;;;;;;;1.42;1.08;;;;;;;;;;4995468;28;20053;-77
2023/04/02 14:44:29;;;;;;;2.10;1.90;;;;;;;;;;4982350;28;20066;-78
2023/04/02 14:47:28;;;;;;;1.83;1.58;;;;;;;;;;4990552;28;20052;-78
2023/04/02 14:49:58;;;;;;;1.90;1.45;;;;;;;;;;4999640;28;20103;-77
2023/04/02 14:52:26;;;;;;;1.73;1.40;;;;;;;;;;4988402;28;20490;-79
2023/04/02 14:54:56;;;;;;;1.23;1.00;;;;;;;;;;4980719;28;20677;-78
2023/04/02 14:57:36;;;;;;;1.27;1.17;;;;;;;;;;4979422;28;20049;-78
2023/04/02 15:00:06;;;;;;;1.55;1.08;;;;;;;;;;4979226;28;20054;-78
2023/04/02 15:02:48;;;;;;;1.73;0.90;;;;;;;;;;4994866;28;20502;-77
2023/04/02 15:05:18;;;;;;;2.28;1.45;;;;;;;;;;4979109;28;20050;-77
2023/04/02 15:07:51;;;;;;;1.63;1.15;;;;;;;;;;4978898;28;20060;-77
2023/04/02 15:10:24;;;;;;;;;;;;;;;;;;4978967;28;20444;-77
2023/04/02 15:12:52;;;;;;;1.73;0.70;;;;;;;;;;4994684;28;19922;-77
2023/04/02 15:15:44;;;;;;;1.00;0.98;;;;;;;;;;4978246;28;20056;-77
2023/04/02 15:18:13;;;;;;;1.50;0.60;;;;;;;;;;4993989;28;20053;-76
2023/04/02 15:20:58;;;;;;;0.98;0.90;;;;;;;;;;4978417;28;20053;-76
2023/04/02 15:23:41;;;;;;;1.55;1.33;;;;;;;;;;4993949;28;20446;-77
2023/04/02 15:26:15;;;;;;;1.95;1.00;;;;;;;;;;4996563;28;20464;-78
2023/04/02 15:29:12;;;;;;;2.65;1.17;;;;;;;;;;4995880;28;20049;-78
2023/04/02 15:31:57;;;;;;;2.33;1.10;;;;;;;;;;5097509;23;20060;-79
2023/04/02 15:34:56;;;;;;;1.83;1.30;;;;;;;;;;5037970;28;20079;-79
2023/04/02 15:37:26;;;;;;;2.45;1.23;;;;;;;;;;5041261;28;20056;-81